createdAt,value
2023-03-10T00:01:25.140Z,100.00
2023-03-10T00:03:53.189Z,100.00
2023-03-10T00:06:23.700Z,100.00
2023-03-10T00:08:52.213Z,100.00
2023-03-10T00:11:21.304Z,100.00
2023-03-10T00:13:49.698Z,100.00
2023-03-10T00:16:22.225Z,100.00
2023-03-10T00:18:50.415Z,100.00
2023-03-10T00:21:21.827Z,100.00
2023-03-10T00:23:50.113Z,100.00
2023-03-10T00:26:20.492Z,100.00
2023-03-10T00:28:49.225Z,100.00
2023-03-10T00:31:24.001Z,100.00
2023-03-10T00:33:53.126Z,100.00
2023-03-10T00:36:23.176Z,100.00
2023-03-10T00:38:52.124Z,100.00
2023-03-10T00:41:22.385Z,100.00
2023-03-10T00:43:50.881Z,100.00
2023-03-10T00:46:21.358Z,100.00
2023-03-10T00:48:49.703Z,100.00
2023-03-10T00:51:18.514Z,100.00
2023-03-10T00:53:47.610Z,100.00
2023-03-10T00:56:17.735Z,100.00
2023-03-10T00:58:46.924Z,100.00
2023-03-10T01:01:16.971Z,100.00
2023-03-10T01:03:47.050Z,100.00
2023-03-10T01:06:15.430Z,100.00
2023-03-10T01:08:43.750Z,100.00
2023-03-10T01:11:14.404Z,100.00
2023-03-10T01:13:42.886Z,100.00
2023-03-10T01:16:11.398Z,100.00
2023-03-10T01:18:40.157Z,100.00
2023-03-10T01:21:18.138Z,100.00
2023-03-10T01:23:46.710Z,100.00
2023-03-10T01:26:17.240Z,100.00
2023-03-10T01:28:47.023Z,100.00
2023-03-10T01:31:15.862Z,100.00
2023-03-10T01:33:44.636Z,100.00
2023-03-10T01:36:16.674Z,100.00
2023-03-10T01:38:45.357Z,100.00
2023-03-10T01:41:13.780Z,100.00
2023-03-10T01:43:42.929Z,100.00
2023-03-10T01:46:43.098Z,100.00
2023-03-10T01:49:17.940Z,100.00
2023-03-10T01:51:50.129Z,100.00
2023-03-10T01:54:22.592Z,100.00
2023-03-10T01:56:52.209Z,100.00
2023-03-10T01:59:22.284Z,100.00
2023-03-10T02:01:51.822Z,100.00
2023-03-10T02:04:24.099Z,100.00
2023-03-10T02:06:53.617Z,100.00
2023-03-10T02:09:22.867Z,100.00
2023-03-10T02:11:51.103Z,100.00
2023-03-10T02:14:19.832Z,100.00
2023-03-10T02:16:48.035Z,100.00
2023-03-10T02:19:31.033Z,100.00
2023-03-10T02:22:06.233Z,100.00
2023-03-10T02:24:42.678Z,100.00
2023-03-10T02:27:18.371Z,100.00
2023-03-10T02:29:58.815Z,100.00
2023-03-10T02:32:28.722Z,100.00
2023-03-10T02:34:56.869Z,100.00
2023-03-10T02:37:27.308Z,100.00
2023-03-10T02:39:55.565Z,100.00
2023-03-10T02:42:27.960Z,100.00
2023-03-10T02:44:57.076Z,100.00
2023-03-10T02:47:25.558Z,100.00
2023-03-10T02:49:53.899Z,100.00
2023-03-10T02:52:30.557Z,100.00
2023-03-10T02:54:59.043Z,100.00
2023-03-10T02:57:29.489Z,100.00
2023-03-10T02:59:57.724Z,100.00
2023-03-10T03:02:25.913Z,100.00
2023-03-10T03:04:54.293Z,100.00
2023-03-10T03:07:22.418Z,100.00
2023-03-10T03:09:50.533Z,100.00
2023-03-10T03:12:18.538Z,100.00
2023-03-10T03:14:49.090Z,100.00
2023-03-10T03:17:17.517Z,100.00
2023-03-10T03:19:45.869Z,100.00
2023-03-10T03:22:14.150Z,100.00
2023-03-10T03:24:42.185Z,100.00
2023-03-10T03:27:10.519Z,100.00
2023-03-10T03:29:38.664Z,100.00
2023-03-10T03:32:09.835Z,100.00
2023-03-10T03:34:37.970Z,100.00
2023-03-10T03:37:05.983Z,100.00
2023-03-10T03:39:34.135Z,100.00
2023-03-10T03:42:02.229Z,100.00
2023-03-10T03:44:30.276Z,100.00
2023-03-10T03:46:59.144Z,100.00
2023-03-10T03:49:29.094Z,100.00
2023-03-10T03:51:57.074Z,100.00
2023-03-10T03:54:25.308Z,100.00
2023-03-10T03:56:53.398Z,100.00
2023-03-10T03:59:21.468Z,100.00
2023-03-10T04:01:49.683Z,100.00
2023-03-10T04:04:17.732Z,100.00
2023-03-10T04:06:47.287Z,100.00
2023-03-10T04:09:15.806Z,100.00
2023-03-10T04:11:43.912Z,100.00
2023-03-10T04:14:12.520Z,100.00
2023-03-10T04:16:40.587Z,100.00
2023-03-10T04:19:08.846Z,100.00
2023-03-10T04:21:37.374Z,100.00
2023-03-10T04:24:08.130Z,100.00
2023-03-10T04:26:36.578Z,100.00
2023-03-10T04:29:04.968Z,100.00
2023-03-10T04:31:33.128Z,100.00
2023-03-10T04:34:01.444Z,100.00
2023-03-10T04:36:29.500Z,100.00
2023-03-10T04:38:58.005Z,100.00
2023-03-10T04:41:27.867Z,100.00
2023-03-10T04:43:55.971Z,100.00
2023-03-10T04:46:24.174Z,100.00
2023-03-10T04:48:53.192Z,100.00
2023-03-10T04:51:21.218Z,100.00
2023-03-10T04:53:49.386Z,100.00
2023-03-10T04:56:17.502Z,100.00
2023-03-10T04:58:47.207Z,100.00
2023-03-10T05:01:17.204Z,100.00
2023-03-10T05:03:45.772Z,100.00
2023-03-10T05:06:15.861Z,100.00
2023-03-10T05:08:44.228Z,100.00
2023-03-10T05:11:12.644Z,100.00
2023-03-10T05:13:41.310Z,100.00
2023-03-10T05:16:16.578Z,100.00
2023-03-10T05:18:44.808Z,100.00
2023-03-10T05:21:13.041Z,100.00
2023-03-10T05:23:41.350Z,100.00
2023-03-10T05:26:13.609Z,100.00
2023-03-10T05:28:41.832Z,100.00
2023-03-10T05:31:12.009Z,100.00
2023-03-10T05:33:42.390Z,100.00
2023-03-10T05:36:13.319Z,100.00
2023-03-10T05:38:41.475Z,100.00
2023-03-10T05:41:10.379Z,100.00
2023-03-10T05:43:39.456Z,100.00
2023-03-10T05:46:08.512Z,100.00
2023-03-10T05:48:36.584Z,100.00
2023-03-10T05:51:08.391Z,100.00
2023-03-10T05:53:37.347Z,100.00
2023-03-10T05:56:10.680Z,100.00
2023-03-10T05:58:39.321Z,100.00
2023-03-10T06:01:07.810Z,100.00
2023-03-10T06:03:36.834Z,100.00
2023-03-10T06:06:07.984Z,100.00
2023-03-10T06:08:35.950Z,100.00
2023-03-10T06:11:04.078Z,100.00
2023-03-10T06:13:33.198Z,100.00
2023-03-10T06:16:04.404Z,100.00
2023-03-10T06:18:32.662Z,100.00
2023-03-10T06:21:00.694Z,100.00
2023-03-10T06:23:30.079Z,100.00
2023-03-10T06:25:59.067Z,100.00
2023-03-10T06:28:27.648Z,100.00
2023-03-10T06:30:56.220Z,100.00
2023-03-10T06:33:24.646Z,100.00
2023-03-10T06:35:53.143Z,100.00
2023-03-10T06:38:21.262Z,100.00
2023-03-10T06:40:50.636Z,100.00
2023-03-10T06:43:18.755Z,100.00
2023-03-10T06:45:48.034Z,100.00
2023-03-10T06:48:16.593Z,100.00
2023-03-10T06:50:48.002Z,100.00
2023-03-10T06:53:17.654Z,100.00
2023-03-10T06:55:45.913Z,100.00
2023-03-10T06:58:15.326Z,100.00
2023-03-10T07:00:43.805Z,100.00
2023-03-10T07:03:13.005Z,100.00
2023-03-10T07:05:41.204Z,100.00
2023-03-10T07:08:09.585Z,100.00
2023-03-10T07:10:37.660Z,100.00
2023-03-10T07:13:05.846Z,100.00
2023-03-10T07:15:37.091Z,98.50
2023-03-10T07:18:06.292Z,98.12
2023-03-10T07:20:34.401Z,97.83
2023-03-10T07:23:02.787Z,94.84
2023-03-10T07:25:31.249Z,89.85
2023-03-10T07:27:59.398Z,90.68
2023-03-10T07:30:27.464Z,89.62
2023-03-10T07:32:57.308Z,87.17
2023-03-10T07:35:25.287Z,87.72
2023-03-10T07:37:53.345Z,82.72
2023-03-10T07:40:24.997Z,84.94
2023-03-10T07:42:54.854Z,84.22
2023-03-10T07:45:23.016Z,79.63
2023-03-10T07:47:52.401Z,84.37
2023-03-10T07:50:22.712Z,82.57
2023-03-10T07:52:50.940Z,83.33
2023-03-10T07:55:19.632Z,80.50
2023-03-10T07:57:47.804Z,82.29
2023-03-10T08:00:16.766Z,79.50
2023-03-10T08:02:44.883Z,80.44
2023-03-10T08:05:15.027Z,81.97
2023-03-10T08:07:45.052Z,80.94
2023-03-10T08:10:14.112Z,75.75
2023-03-10T08:12:42.042Z,75.76
2023-03-10T08:15:11.320Z,76.41
2023-03-10T08:17:39.563Z,75.17
2023-03-10T08:20:08.796Z,76.17
2023-03-10T08:22:36.950Z,75.69
2023-03-10T08:25:07.662Z,76.03
2023-03-10T08:27:35.804Z,77.08
2023-03-10T08:30:04.031Z,77.16
2023-03-10T08:32:34.188Z,76.06
2023-03-10T08:35:02.340Z,75.34
2023-03-10T08:37:30.356Z,75.17
2023-03-10T08:39:59.653Z,74.97
2023-03-10T08:42:29.244Z,76.05
2023-03-10T08:44:57.605Z,74.23
2023-03-10T08:47:28.556Z,75.32
2023-03-10T08:49:57.442Z,75.91
2023-03-10T08:52:25.578Z,74.26
2023-03-10T08:54:54.016Z,74.48
2023-03-10T08:57:22.356Z,74.58
2023-03-10T08:59:52.921Z,75.82
2023-03-10T09:02:22.242Z,77.73
2023-03-10T09:04:51.442Z,73.86
2023-03-10T09:07:19.640Z,72.38
2023-03-10T09:09:47.676Z,72.95
2023-03-10T09:12:15.802Z,70.53
2023-03-10T09:14:43.761Z,65.06
2023-03-10T09:17:13.333Z,65.91
2023-03-10T09:19:41.299Z,68.92
2023-03-10T09:22:09.348Z,68.15
2023-03-10T09:24:37.291Z,64.08
2023-03-10T09:27:05.467Z,65.47
2023-03-10T09:29:42.979Z,72.54
2023-03-10T09:32:13.485Z,66.53
2023-03-10T09:34:41.788Z,63.30
2023-03-10T09:37:10.100Z,68.16
2023-03-10T09:39:38.075Z,65.13
2023-03-10T09:42:37.482Z,59.96
2023-03-10T09:45:17.738Z,62.16
2023-03-10T09:48:00.438Z,66.17
2023-03-10T09:50:35.260Z,58.43
2023-03-10T09:53:09.000Z,56.06
2023-03-10T09:55:42.380Z,55.58
2023-03-10T09:58:21.975Z,58.76
2023-03-10T10:00:50.299Z,58.30
2023-03-10T10:03:22.505Z,56.88
2023-03-10T10:05:53.558Z,57.67
2023-03-10T10:08:28.068Z,57.26
2023-03-10T10:10:58.092Z,55.38
2023-03-10T10:13:29.875Z,57.72
2023-03-10T10:16:21.288Z,56.13
2023-03-10T10:18:59.573Z,59.72
2023-03-10T10:21:42.765Z,56.37
2023-03-10T10:24:11.247Z,58.69
2023-03-10T10:26:39.191Z,56.06
2023-03-10T10:29:17.218Z,57.47
2023-03-10T10:32:04.212Z,60.25
2023-03-10T10:34:34.519Z,57.54
2023-03-10T10:37:02.611Z,60.26
2023-03-10T10:39:33.388Z,53.08
2023-03-10T10:42:14.662Z,53.42
2023-03-10T10:44:44.194Z,50.51
2023-03-10T10:47:26.778Z,51.62
2023-03-10T10:49:56.871Z,49.63
2023-03-10T10:52:26.781Z,51.36
2023-03-10T10:54:57.690Z,48.20
2023-03-10T10:57:30.232Z,47.46
2023-03-10T11:00:15.334Z,48.99
2023-03-10T11:02:43.498Z,47.13
2023-03-10T11:05:18.621Z,46.13
2023-03-10T11:07:47.130Z,48.35
2023-03-10T11:10:16.249Z,47.80
2023-03-10T11:12:57.184Z,50.70
2023-03-10T11:15:32.233Z,46.58
2023-03-10T11:18:05.146Z,48.05
2023-03-10T11:20:45.369Z,46.92
2023-03-10T11:23:22.060Z,45.50
2023-03-10T11:25:55.522Z,44.52
2023-03-10T11:28:36.258Z,44.12
2023-03-10T11:31:15.305Z,43.72
2023-03-10T11:33:50.235Z,44.25
2023-03-10T11:36:31.673Z,42.84
2023-03-10T11:39:10.278Z,44.38
2023-03-10T11:41:43.742Z,45.07
2023-03-10T11:44:22.929Z,47.69
2023-03-10T11:47:02.022Z,46.55
2023-03-10T11:49:36.714Z,46.82
2023-03-10T11:52:13.443Z,47.23
2023-03-10T11:54:45.684Z,46.38
2023-03-10T11:57:18.220Z,47.04
2023-03-10T11:59:52.680Z,46.45
2023-03-10T12:02:25.780Z,46.50
2023-03-10T12:05:00.445Z,47.39
2023-03-10T12:07:32.907Z,46.14
2023-03-10T12:10:03.926Z,45.24
2023-03-10T12:12:34.743Z,46.70
2023-03-10T12:15:06.062Z,47.74
2023-03-10T12:17:34.254Z,45.48
2023-03-10T12:20:24.010Z,46.55
2023-03-10T12:22:54.066Z,47.08
2023-03-10T12:25:44.718Z,46.23
2023-03-10T12:28:14.295Z,48.31
2023-03-10T12:30:46.885Z,47.09
2023-03-10T12:33:53.573Z,47.56
2023-03-10T12:36:34.226Z,47.97
2023-03-10T12:39:31.784Z,48.27
2023-03-10T12:42:00.732Z,48.88
2023-03-10T12:44:51.091Z,49.68
2023-03-10T12:47:35.615Z,47.17
2023-03-10T12:50:16.596Z,47.73
2023-03-10T12:52:52.861Z,48.50
2023-03-10T12:55:25.324Z,48.76
2023-03-10T12:58:01.270Z,49.13
2023-03-10T13:00:36.562Z,48.09
2023-03-10T13:03:14.278Z,48.20
2023-03-10T13:05:55.574Z,47.96
2023-03-10T13:08:27.214Z,48.77
2023-03-10T13:10:57.481Z,50.92
2023-03-10T13:13:30.696Z,48.36
2023-03-10T13:15:59.842Z,48.58
2023-03-10T13:18:28.612Z,50.33
2023-03-10T13:20:56.618Z,48.54
2023-03-10T13:23:27.879Z,49.49
2023-03-10T13:25:58.695Z,49.19
2023-03-10T13:28:28.488Z,50.38
2023-03-10T13:31:11.093Z,51.83
2023-03-10T13:33:50.244Z,50.20
2023-03-10T13:36:32.312Z,50.20
2023-03-10T13:39:01.738Z,50.19
2023-03-10T13:41:37.513Z,49.88
2023-03-10T13:44:05.674Z,48.74
2023-03-10T13:46:34.913Z,48.84
2023-03-10T13:49:06.661Z,49.16
2023-03-10T13:51:36.430Z,48.53
2023-03-10T13:54:20.648Z,49.04
2023-03-10T13:56:52.384Z,50.30
2023-03-10T13:59:23.958Z,49.70
2023-03-10T14:01:55.614Z,49.91
2023-03-10T14:04:42.926Z,50.65
2023-03-10T14:07:13.160Z,49.67
2023-03-10T14:09:41.657Z,51.32
2023-03-10T14:12:12.605Z,52.09
2023-03-10T14:14:41.796Z,52.19
2023-03-10T14:17:29.693Z,53.53
2023-03-10T14:19:57.945Z,53.08
2023-03-10T14:22:32.264Z,53.97
2023-03-10T14:25:01.898Z,53.64
2023-03-10T14:27:35.020Z,53.17
2023-03-10T14:30:05.882Z,52.98
2023-03-10T14:32:33.880Z,52.63
2023-03-10T14:35:02.470Z,53.30
2023-03-10T14:37:30.479Z,52.93
2023-03-10T14:39:58.359Z,53.73
2023-03-10T14:42:31.917Z,52.75
2023-03-10T14:45:05.002Z,53.27
2023-03-10T14:47:33.189Z,53.45
2023-03-10T14:50:02.425Z,53.87
2023-03-10T14:52:30.470Z,54.80
2023-03-10T14:55:00.003Z,55.24
2023-03-10T14:57:28.869Z,54.82
2023-03-10T14:59:58.354Z,57.96
2023-03-10T15:02:29.065Z,59.62
2023-03-10T15:04:57.073Z,60.95
2023-03-10T15:07:25.170Z,60.06
2023-03-10T15:10:05.334Z,58.95
2023-03-10T15:12:39.454Z,57.53
2023-03-10T15:15:16.764Z,59.06
2023-03-10T15:17:45.321Z,58.40
2023-03-10T15:20:18.035Z,58.75
2023-03-10T15:22:46.585Z,59.55
2023-03-10T15:25:16.206Z,59.33
2023-03-10T15:27:44.486Z,60.53
2023-03-10T15:30:19.762Z,60.46
2023-03-10T15:32:47.960Z,60.51
2023-03-10T15:35:16.765Z,60.45
2023-03-10T15:37:45.316Z,60.51
2023-03-10T15:40:17.441Z,60.54
2023-03-10T15:42:46.446Z,61.09
2023-03-10T15:45:18.312Z,60.56
2023-03-10T15:47:47.203Z,60.12
2023-03-10T15:50:16.806Z,60.13
2023-03-10T15:52:47.433Z,60.38
2023-03-10T15:55:16.721Z,61.37
2023-03-10T15:57:45.213Z,61.47
2023-03-10T16:00:16.937Z,61.99
2023-03-10T16:02:45.336Z,62.31
2023-03-10T16:05:13.381Z,62.21
2023-03-10T16:07:41.416Z,62.49
2023-03-10T16:10:12.114Z,63.56
2023-03-10T16:12:40.679Z,64.48
2023-03-10T16:15:09.988Z,65.86
2023-03-10T16:17:39.529Z,66.28
2023-03-10T16:20:12.322Z,67.06
2023-03-10T16:22:52.436Z,67.89
2023-03-10T16:25:21.738Z,68.99
2023-03-10T16:27:50.454Z,69.37
2023-03-10T16:30:19.817Z,70.04
2023-03-10T16:32:50.841Z,72.17
2023-03-10T16:35:19.363Z,73.92
2023-03-10T16:37:47.704Z,76.24
2023-03-10T16:40:16.247Z,75.78
2023-03-10T16:42:45.732Z,76.60
2023-03-10T16:45:14.176Z,76.51
2023-03-10T16:47:44.046Z,78.84
2023-03-10T16:50:14.424Z,79.10
2023-03-10T16:52:43.612Z,79.58
2023-03-10T16:55:17.361Z,80.99
2023-03-10T16:57:46.509Z,83.04
2023-03-10T17:00:15.793Z,85.76
2023-03-10T17:02:43.993Z,85.20
2023-03-10T17:05:15.388Z,85.39
2023-03-10T17:07:55.110Z,84.93
2023-03-10T17:10:26.593Z,84.92
2023-03-10T17:12:54.494Z,84.20
2023-03-10T17:15:22.668Z,83.68
2023-03-10T17:17:51.117Z,83.59
2023-03-10T17:20:21.811Z,84.34
2023-03-10T17:22:50.175Z,84.48
2023-03-10T17:25:18.293Z,84.58
2023-03-10T17:27:46.279Z,84.50
2023-03-10T17:30:19.094Z,84.16
2023-03-10T17:32:49.626Z,85.10
2023-03-10T17:35:18.062Z,84.74
2023-03-10T17:37:47.419Z,86.47
2023-03-10T17:40:17.410Z,87.83
2023-03-10T17:42:45.399Z,88.06
2023-03-10T17:45:13.519Z,88.21
2023-03-10T17:47:41.429Z,88.01
2023-03-10T17:50:10.524Z,89.13
2023-03-10T17:52:38.586Z,89.46
2023-03-10T17:55:09.306Z,89.14
2023-03-10T17:57:39.704Z,89.26
2023-03-10T18:00:11.722Z,90.35
2023-03-10T18:02:39.931Z,91.49
2023-03-10T18:05:08.756Z,91.34
2023-03-10T18:07:36.798Z,91.47
2023-03-10T18:10:05.280Z,91.41
2023-03-10T18:12:34.760Z,91.40
2023-03-10T18:15:02.800Z,91.62
2023-03-10T18:17:30.781Z,93.25
2023-03-10T18:19:58.768Z,91.90
2023-03-10T18:22:26.894Z,91.64
2023-03-10T18:24:57.526Z,90.93
2023-03-10T18:27:25.562Z,90.66
2023-03-10T18:29:55.222Z,90.35
2023-03-10T18:32:26.030Z,90.28
2023-03-10T18:34:54.496Z,89.95
2023-03-10T18:37:22.935Z,89.68
2023-03-10T18:39:51.293Z,90.00
2023-03-10T18:42:21.600Z,89.77
2023-03-10T18:44:49.978Z,89.86
2023-03-10T18:47:19.751Z,90.13
2023-03-10T18:49:48.129Z,90.69
2023-03-10T18:52:17.053Z,91.38
2023-03-10T18:54:45.113Z,91.16
2023-03-10T18:57:13.800Z,91.26
2023-03-10T18:59:42.986Z,91.07
2023-03-10T19:02:14.899Z,90.88
2023-03-10T19:04:47.789Z,90.42
2023-03-10T19:07:17.565Z,89.44
2023-03-10T19:09:45.902Z,89.30
2023-03-10T19:12:13.877Z,88.92
2023-03-10T19:14:42.172Z,88.76
2023-03-10T19:17:10.330Z,87.44
2023-03-10T19:19:38.384Z,87.09
2023-03-10T19:22:07.772Z,87.29
2023-03-10T19:24:36.226Z,87.54
2023-03-10T19:27:04.281Z,88.03
2023-03-10T19:29:32.693Z,88.16
2023-03-10T19:32:00.963Z,88.56
2023-03-10T19:34:28.985Z,88.94
2023-03-10T19:36:56.924Z,89.23
2023-03-10T19:39:26.680Z,90.09
2023-03-10T19:41:54.559Z,90.69
2023-03-10T19:44:22.886Z,90.78
2023-03-10T19:46:51.015Z,91.59
2023-03-10T19:49:18.939Z,92.10
2023-03-10T19:51:46.823Z,93.82
2023-03-10T19:54:14.834Z,96.16
2023-03-10T19:56:44.083Z,98.20
2023-03-10T19:59:12.111Z,100.00
2023-03-10T20:01:42.206Z,100.00
2023-03-10T20:04:11.489Z,100.00
2023-03-10T20:06:39.401Z,100.00
2023-03-10T20:09:10.552Z,100.00
2023-03-10T20:11:39.437Z,100.00
2023-03-10T20:14:09.462Z,100.00
2023-03-10T20:16:37.467Z,100.00
2023-03-10T20:19:05.597Z,100.00
2023-03-10T20:21:33.598Z,100.00
2023-03-10T20:24:01.540Z,100.00
2023-03-10T20:26:29.504Z,100.00
2023-03-10T20:28:57.473Z,100.00
2023-03-10T20:31:28.452Z,100.00
2023-03-10T20:33:56.622Z,100.00
2023-03-10T20:36:24.570Z,100.00
2023-03-10T20:38:52.576Z,100.00
2023-03-10T20:41:21.977Z,100.00
2023-03-10T20:43:49.937Z,100.00
2023-03-10T20:46:19.507Z,100.00
2023-03-10T20:48:51.208Z,100.00
2023-03-10T20:51:19.438Z,100.00
2023-03-10T20:53:47.434Z,100.00
2023-03-10T20:56:16.800Z,100.00
2023-03-10T20:58:45.046Z,100.00
2023-03-10T21:01:16.866Z,100.00
2023-03-10T21:03:44.839Z,100.00
2023-03-10T21:06:14.183Z,100.00
2023-03-10T21:08:42.136Z,100.00
2023-03-10T21:11:10.162Z,100.00
2023-03-10T21:13:38.115Z,100.00
2023-03-10T21:16:06.473Z,100.00
2023-03-10T21:18:34.658Z,100.00
2023-03-10T21:21:07.147Z,100.00
2023-03-10T21:23:37.026Z,100.00
2023-03-10T21:26:11.136Z,100.00
2023-03-10T21:28:38.824Z,100.00
2023-03-10T21:31:07.271Z,100.00
2023-03-10T21:33:35.397Z,100.00
2023-03-10T21:36:04.373Z,100.00
2023-03-10T21:38:32.638Z,100.00
2023-03-10T21:41:02.399Z,100.00
2023-03-10T21:43:30.398Z,100.00
2023-03-10T21:45:58.338Z,100.00
2023-03-10T21:48:26.448Z,100.00
2023-03-10T21:50:54.436Z,100.00
2023-03-10T21:53:26.486Z,100.00
2023-03-10T21:55:55.143Z,100.00
2023-03-10T21:58:25.026Z,100.00
2023-03-10T22:00:55.994Z,100.00
2023-03-10T22:03:24.307Z,100.00
2023-03-10T22:05:52.659Z,100.00
2023-03-10T22:08:21.138Z,100.00
2023-03-10T22:10:49.119Z,100.00
2023-03-10T22:13:17.123Z,99.32
2023-03-10T22:15:46.631Z,98.72
2023-03-10T22:18:15.089Z,98.76
2023-03-10T22:20:43.465Z,99.65
2023-03-10T22:23:11.383Z,100.00
2023-03-10T22:25:39.376Z,100.00
2023-03-10T22:28:07.786Z,100.00
2023-03-10T22:30:36.282Z,100.00
2023-03-10T22:33:07.017Z,100.00
2023-03-10T22:35:35.078Z,100.00
2023-03-10T22:38:03.926Z,100.00
2023-03-10T22:40:32.061Z,100.00
2023-03-10T22:43:00.145Z,100.00
2023-03-10T22:45:30.415Z,100.00
2023-03-10T22:48:00.583Z,100.00
2023-03-10T22:50:33.032Z,100.00
2023-03-10T22:53:01.305Z,100.00
2023-03-10T22:55:34.964Z,100.00
2023-03-10T22:58:04.566Z,100.00
2023-03-10T23:00:32.888Z,100.00
2023-03-10T23:03:01.495Z,100.00
2023-03-10T23:05:30.887Z,100.00
2023-03-10T23:07:59.346Z,100.00
2023-03-10T23:10:29.033Z,100.00
2023-03-10T23:12:59.515Z,100.00
2023-03-10T23:15:30.249Z,100.00
2023-03-10T23:17:58.559Z,100.00
2023-03-10T23:20:29.194Z,100.00
2023-03-10T23:23:00.717Z,100.00
2023-03-10T23:25:31.558Z,100.00
2023-03-10T23:28:00.561Z,100.00
2023-03-10T23:30:29.664Z,100.00
2023-03-10T23:32:57.927Z,100.00
2023-03-10T23:35:28.085Z,100.00
2023-03-10T23:37:56.491Z,100.00
2023-03-10T23:40:28.089Z,100.00
2023-03-10T23:42:57.468Z,100.00
2023-03-10T23:45:27.526Z,100.00
2023-03-10T23:47:58.962Z,100.00
2023-03-10T23:50:28.741Z,100.00
2023-03-10T23:52:57.355Z,100.00
2023-03-10T23:55:29.067Z,100.00
2023-03-10T23:57:57.068Z,100.00
